Time;durP1;ratioP1;P1;durP2;ratioP2;P2;SDS_P1;SDS_P2;PMS_P1;PMS_P2;Temp;Humidity;BMP_temperature;BMP_pressure;BME280_temperature;BME280_humidity;BME280_pressure;Samples;Min_cycle;Max_cycle;Signal;HPM_P1;HPM_P2
2021/07/26 00:02:12;;;;;;;15.20;8.90;;;;;;;24.93;64.88;99425.44;4968944;28;20133;-75
2021/07/26 00:04:39;;;;;;;11.60;9.48;;;;;;;24.77;65.32;99426.53;4952291;28;20043;-75
2021/07/26 00:07:06;;;;;;;16.27;9.35;;;;;;;24.71;65.79;99424.59;4968733;28;20053;-75
2021/07/26 00:09:34;;;;;;;10.55;8.00;;;;;;;24.73;65.96;99411.94;4968689;28;20398;-75
2021/07/26 00:12:01;;;;;;;16.58;9.00;;;;;;;24.78;65.56;99413.00;4965077;28;20109;-75
2021/07/26 00:14:28;;;;;;;15.68;11.07;;;;;;;24.61;65.94;99421.41;4964892;28;20039;-76
2021/07/26 00:16:55;;;;;;;15.55;9.13;;;;;;;24.64;65.75;99426.38;4961573;28;20109;-80
2021/07/26 00:19:22;;;;;;;15.23;9.25;;;;;;;24.64;65.45;99426.38;4957326;28;20043;-76
2021/07/26 00:21:49;;;;;;;10.60;8.45;;;;;;;24.70;65.03;99430.94;4962104;28;20156;-75
2021/07/26 00:24:18;;;;;;;26.90;9.85;;;;;;;24.54;65.74;99431.97;4963482;28;20050;-75
2021/07/26 00:26:45;;;;;;;16.63;9.82;;;;;;;24.74;65.03;99427.72;4958700;28;20046;-75
2021/07/26 00:29:12;;;;;;;17.30;9.63;;;;;;;24.78;64.67;99430.84;4960215;28;20383;-75
2021/07/26 00:31:39;;;;;;;20.15;10.38;;;;;;;24.64;65.83;99432.53;4957223;28;20102;-78
2021/07/26 00:34:19;;;;;;;14.32;9.35;;;;;;;24.75;65.49;99433.88;4957951;28;20067;-75
2021/07/26 00:36:49;;;;;;;16.67;10.48;;;;;;;24.56;66.43;99436.13;4955736;28;20118;-74
2021/07/26 00:39:19;;;;;;;13.55;10.32;;;;;;;24.65;66.93;99439.50;4954592;28;20498;-73
2021/07/26 00:41:47;;;;;;;18.77;11.25;;;;;;;24.58;67.80;99443.09;4964259;28;20138;-74
2021/07/26 00:44:16;;;;;;;12.27;9.95;;;;;;;24.74;67.72;99442.88;4967548;28;20085;-75
2021/07/26 00:46:45;;;;;;;17.00;11.18;;;;;;;24.77;68.29;99445.19;4962992;28;20075;-75
2021/07/26 00:49:16;;;;;;;15.48;10.98;;;;;;;24.78;68.47;99449.50;4967251;28;20031;-75
2021/07/26 00:51:54;;;;;;;13.10;10.38;;;;;;;24.70;69.00;99449.59;4970446;28;20554;-76
2021/07/26 00:54:25;;;;;;;12.63;10.80;;;;;;;24.76;68.71;99459.50;4957926;29;20098;-76
2021/07/26 00:56:53;;;;;;;13.68;10.73;;;;;;;24.68;68.93;99459.63;4956980;28;20051;-76
2021/07/26 00:59:21;;;;;;;15.60;10.43;;;;;;;24.68;69.58;99463.13;4967393;28;20034;-77
2021/07/26 01:01:48;;;;;;;16.38;11.25;;;;;;;24.56;71.05;99457.44;4963373;28;20047;-76
2021/07/26 01:04:15;;;;;;;17.88;12.55;;;;;;;24.41;72.56;99467.28;4958162;29;20471;-76
2021/07/26 01:06:43;;;;;;;13.07;11.23;;;;;;;24.67;71.59;99469.47;4957465;28;20047;-75
2021/07/26 01:09:10;;;;;;;17.13;11.77;;;;;;;24.62;72.39;99465.72;4965217;28;20066;-75
2021/07/26 01:11:37;;;;;;;18.08;13.40;;;;;;;24.57;72.84;99463.59;4976583;28;20081;-76
2021/07/26 01:14:04;;;;;;;18.73;12.55;;;;;;;24.56;73.28;99467.28;4976943;28;20047;-76
2021/07/26 01:16:32;;;;;;;15.85;11.65;;;;;;;24.58;73.27;99470.56;4973861;28;20043;-79
2021/07/26 01:19:01;;;;;;;14.07;10.38;;;;;;;24.49;72.18;99479.66;4940770;29;20039;-76
2021/07/26 01:21:31;;;;;;;12.55;10.80;;;;;;;24.45;71.58;99479.22;4960172;28;20099;-77
2021/07/26 01:24:01;;;;;;;17.05;10.75;;;;;;;24.47;72.43;99485.19;4959753;28;20045;-75
2021/07/26 01:26:28;;;;;;;18.30;12.60;;;;;;;24.31;74.03;99486.16;4957176;29;20065;-76
2021/07/26 01:29:00;;;;;;;18.70;13.30;;;;;;;24.27;74.71;99484.88;4957722;28;20043;-74
2021/07/26 01:31:28;;;;;;;16.85;12.55;;;;;;;24.27;75.03;99484.88;4957368;29;20043;-75
2021/07/26 01:33:56;;;;;;;21.00;11.32;;;;;;;24.23;75.66;99483.59;4966766;28;20090;-75
2021/07/26 01:36:23;;;;;;;20.17;11.82;;;;;;;24.35;75.15;99481.34;4940109;29;20498;-75
2021/07/26 01:38:53;;;;;;;15.38;13.30;;;;;;;24.28;75.61;99486.53;4956945;29;20468;-75
2021/07/26 01:41:23;;;;;;;15.63;12.23;;;;;;;24.35;75.04;99489.34;4957662;28;20039;-75
2021/07/26 01:44:03;;;;;;;19.95;13.70;;;;;;;24.44;74.99;99485.53;4956766;28;20056;-78
2021/07/26 01:46:48;;;;;;;20.52;12.95;;;;;;;24.49;75.31;99483.16;4957097;28;20048;-75
2021/07/26 01:49:28;;;;;;;18.20;12.82;;;;;;;24.42;75.93;99479.59;4960886;28;20135;-75
2021/07/26 01:51:55;;;;;;;25.55;14.55;;;;;;;24.45;75.58;99476.56;4955933;28;20110;-75
2021/07/26 01:54:22;;;;;;;17.20;13.02;;;;;;;24.47;75.29;99469.22;4956541;29;20050;-76
2021/07/26 01:56:49;;;;;;;22.58;11.75;;;;;;;24.47;74.53;99477.19;4967974;28;20117;-76
2021/07/26 01:59:16;;;;;;;16.35;12.02;;;;;;;24.40;75.18;99483.47;4975958;28;20130;-75
2021/07/26 02:01:43;;;;;;;16.38;10.90;;;;;;;24.39;74.61;99479.94;4957716;28;20126;-75
2021/07/26 02:04:10;;;;;;;18.08;12.23;;;;;;;24.22;74.82;99486.44;4957184;28;20055;-75
2021/07/26 02:06:36;;;;;;;17.90;11.70;;;;;;;24.30;74.22;99487.19;4959423;28;20031;-76
2021/07/26 02:09:03;;;;;;;18.95;11.15;;;;;;;24.27;74.59;99497.38;4971651;28;20039;-75
2021/07/26 02:11:30;;;;;;;18.95;11.63;;;;;;;24.25;74.76;99496.75;4956220;29;20406;-76
2021/07/26 02:13:57;;;;;;;19.10;11.55;;;;;;;24.66;73.21;99499.81;4939536;29;20051;-75
2021/07/26 02:16:24;;;;;;;15.00;11.38;;;;;;;24.36;74.84;99498.97;4964339;28;20398;-76
2021/07/26 02:18:51;;;;;;;16.38;11.15;;;;;;;24.16;75.65;99492.50;4975751;28;20053;-76
2021/07/26 02:21:18;;;;;;;17.85;11.18;;;;;;;24.13;75.95;99503.50;4960509;28;20051;-75
2021/07/26 02:23:45;;;;;;;19.27;11.30;;;;;;;24.05;76.04;99491.13;4956407;28;20071;-75
2021/07/26 02:26:12;;;;;;;16.98;12.07;;;;;;;24.09;76.21;99486.25;4974176;28;20043;-75
2021/07/26 02:28:39;;;;;;;14.18;11.43;;;;;;;24.22;75.18;99486.44;4962306;28;20039;-75
2021/07/26 02:31:05;;;;;;;18.33;12.23;;;;;;;24.39;73.17;99487.94;4958593;28;20142;-75
2021/07/26 02:33:32;;;;;;;20.02;15.25;;;;;;;23.93;73.91;99479.25;4962634;28;20561;-75
2021/07/26 02:35:59;;;;;;;16.92;13.48;;;;;;;23.38;76.32;99483.84;4965299;28;20039;-78
2021/07/26 02:38:26;;;;;;;21.15;13.30;;;;;;;23.02;78.37;99477.47;4955824;29;20127;-78
2021/07/26 02:40:53;;;;;;;17.15;11.65;;;;;;;23.12;78.26;99483.38;4956207;28;20062;-76
2021/07/26 02:43:20;;;;;;;14.85;10.65;;;;;;;23.05;79.00;99477.09;4951238;28;20118;-75
2021/07/26 02:45:48;;;;;;;14.02;11.43;;;;;;;23.27;78.60;99473.59;4940755;29;20042;-75
2021/07/26 02:48:15;;;;;;;17.80;13.43;;;;;;;23.36;78.32;99485.03;4937014;29;20078;-76
2021/07/26 02:50:42;;;;;;;18.73;11.60;;;;;;;23.45;77.92;99476.00;4936909;29;20465;-76
2021/07/26 02:53:08;;;;;;;13.50;11.75;;;;;;;23.56;77.46;99480.06;4950048;29;20126;-77
2021/07/26 02:55:35;;;;;;;14.82;12.85;;;;;;;23.58;77.44;99472.72;4955536;28;20483;-76
2021/07/26 02:58:03;;;;;;;14.50;11.88;;;;;;;23.56;78.25;99485.38;4956131;29;20044;-75
2021/07/26 03:00:29;;;;;;;24.88;13.93;;;;;;;23.61;78.13;99477.69;4955606;29;20053;-76
2021/07/26 03:02:57;;;;;;;16.73;12.02;;;;;;;23.79;76.29;99472.91;4955300;28;20126;-76
2021/07/26 03:05:27;;;;;;;18.35;11.52;;;;;;;23.41;77.29;99482.66;4940301;28;20048;-78
2021/07/26 03:07:53;;;;;;;17.80;11.45;;;;;;;22.96;79.36;99486.97;4936217;29;20078;-76
2021/07/26 03:10:20;;;;;;;13.98;11.13;;;;;;;23.07;78.92;99488.41;4943774;29;20047;-76
2021/07/26 03:12:47;;;;;;;16.73;11.20;;;;;;;23.40;77.47;99489.81;4944961;28;20036;-76
2021/07/26 03:15:14;;;;;;;16.95;11.50;;;;;;;23.45;77.41;99481.31;4936401;29;20055;-76
2021/07/26 03:17:41;;;;;;;18.17;13.50;;;;;;;23.38;77.84;99485.66;4948593;29;20149;-76
2021/07/26 03:20:08;;;;;;;17.58;12.70;;;;;;;23.53;77.21;99476.72;4970195;28;20130;-76
2021/07/26 03:22:42;;;;;;;22.02;12.05;;;;;;;23.41;77.37;99483.50;4954860;29;20130;-77
2021/07/26 03:25:10;;;;;;;22.25;13.48;;;;;;;23.17;77.96;99481.84;4952910;28;20098;-76
2021/07/26 03:27:37;;;;;;;18.58;11.75;;;;;;;23.35;76.76;99480.72;4935720;29;20071;-76
2021/07/26 03:30:04;;;;;;;20.92;12.63;;;;;;;23.04;77.81;99475.44;4960643;28;20046;-76
2021/07/26 03:32:31;;;;;;;14.55;12.00;;;;;;;23.06;77.62;99484.06;4936089;29;20086;-77
2021/07/26 03:35:01;;;;;;;18.48;11.85;;;;;;;23.10;77.16;99485.38;4934614;29;20056;-78
2021/07/26 03:37:28;;;;;;;16.67;11.95;;;;;;;23.36;76.15;99485.03;4953047;29;20043;-77
2021/07/26 03:39:55;;;;;;;18.90;12.75;;;;;;;23.16;76.52;99482.81;4941193;28;20422;-77
2021/07/26 03:42:22;;;;;;;21.15;11.98;;;;;;;23.14;77.20;99476.03;4939863;29;20042;-76
2021/07/26 03:44:49;;;;;;;16.27;11.68;;;;;;;23.25;76.81;99475.63;4964226;28;20055;-76
2021/07/26 03:47:16;;;;;;;15.15;11.77;;;;;;;23.15;75.60;99467.88;4955158;29;20066;-75
2021/07/26 03:49:43;;;;;;;16.20;11.25;;;;;;;23.11;75.63;99466.56;4954499;28;20130;-75
2021/07/26 03:52:10;;;;;;;20.48;11.65;;;;;;;23.05;76.94;99475.25;4960876;28;20043;-75
2021/07/26 03:54:36;;;;;;;16.77;11.90;;;;;;;23.02;76.76;99477.47;4963835;28;20047;-75
2021/07/26 03:57:04;;;;;;;14.93;11.70;;;;;;;23.17;75.46;99481.00;4954866;29;20494;-75
2021/07/26 03:59:30;;;;;;;13.98;11.23;;;;;;;23.08;75.25;99488.22;4954703;28;20039;-75
2021/07/26 04:01:57;;;;;;;14.18;10.30;;;;;;;22.98;75.71;99493.75;4962053;28;20130;-75
2021/07/26 04:04:25;;;;;;;12.50;10.68;;;;;;;23.02;76.07;99493.41;4966763;28;20102;-76
2021/07/26 04:06:56;;;;;;;19.20;11.98;;;;;;;23.06;76.15;99497.34;4954171;29;20046;-75
2021/07/26 04:09:25;;;;;;;14.98;9.85;;;;;;;23.06;75.85;99500.00;4954760;28;20047;-76
2021/07/26 04:12:00;;;;;;;17.67;11.15;;;;;;;22.68;77.27;99498.00;4954273;28;20074;-75
2021/07/26 04:14:30;;;;;;;11.60;10.27;;;;;;;22.68;75.98;99507.78;4956768;28;20490;-75
2021/07/26 04:16:57;;;;;;;17.67;10.20;;;;;;;22.79;75.83;99515.38;4959102;28;20047;-76
2021/07/26 04:19:24;;;;;;;14.40;10.05;;;;;;;22.94;76.25;99513.69;4954276;29;20043;-76
2021/07/26 04:21:56;;;;;;;18.83;12.27;;;;;;;22.94;75.44;99502.22;4954849;28;20039;-77
2021/07/26 04:24:24;;;;;;;21.05;11.73;;;;;;;22.79;75.56;99507.41;4966618;28;20038;-75
2021/07/26 04:26:51;;;;;;;21.58;11.68;;;;;;;22.36;76.61;99512.22;4963598;28;20080;-76
2021/07/26 04:29:19;;;;;;;14.80;10.23;;;;;;;22.51;75.66;99522.16;4953968;28;20046;-77
2021/07/26 04:31:49;;;;;;;19.75;11.43;;;;;;;22.59;74.89;99522.97;4968212;28;20045;-77
2021/07/26 04:34:16;;;;;;;16.38;11.52;;;;;;;22.43;75.48;99523.84;4955042;28;20075;-77
2021/07/26 04:36:43;;;;;;;25.63;12.15;;;;;;;22.67;74.59;99519.44;4957372;28;20460;-75
2021/07/26 04:39:10;;;;;;;14.40;11.40;;;;;;;22.69;73.97;99530.69;4973368;28;20074;-76
2021/07/26 04:41:37;;;;;;;14.75;10.52;;;;;;;22.65;74.12;99534.72;4956971;28;20066;-75
2021/07/26 04:44:04;;;;;;;16.63;11.90;;;;;;;22.58;73.80;99534.56;4949375;28;20062;-75
2021/07/26 04:46:31;;;;;;;18.02;10.98;;;;;;;22.87;72.21;99543.78;4961351;28;20038;-75
2021/07/26 04:48:58;;;;;;;19.60;12.40;;;;;;;22.67;72.88;99557.44;4961890;28;20078;-75
2021/07/26 04:51:25;;;;;;;17.42;11.02;;;;;;;22.63;73.46;99566.75;4964042;28;20419;-75
2021/07/26 04:53:52;;;;;;;17.48;13.55;;;;;;;22.81;72.78;99569.19;4956592;28;20051;-75
2021/07/26 04:56:18;;;;;;;16.75;11.88;;;;;;;22.75;73.48;99560.09;4953758;28;20074;-75
2021/07/26 04:58:45;;;;;;;16.02;12.18;;;;;;;22.80;73.99;99564.03;4954908;28;20081;-75
2021/07/26 05:01:12;;;;;;;15.52;12.20;;;;;;;22.86;73.78;99569.53;4966020;28;20106;-75
2021/07/26 05:03:39;;;;;;;16.95;12.57;;;;;;;22.93;73.89;99581.13;4954266;28;20047;-75
2021/07/26 05:06:07;;;;;;;22.38;12.55;;;;;;;23.15;73.75;99589.34;4953474;28;20067;-75
2021/07/26 05:08:33;;;;;;;20.20;12.02;;;;;;;23.19;73.38;99586.16;4953992;28;20049;-77
2021/07/26 05:11:01;;;;;;;17.27;13.05;;;;;;;23.03;74.57;99598.72;4953587;28;20446;-76
2021/07/26 05:13:28;;;;;;;16.15;12.63;;;;;;;23.02;74.71;99592.56;4953324;28;20044;-79
2021/07/26 05:15:54;;;;;;;16.73;13.30;;;;;;;23.10;74.29;99586.38;4955119;28;20050;-76
2021/07/26 05:18:23;;;;;;;17.05;13.57;;;;;;;23.47;72.72;99597.16;4964920;28;20058;-77
2021/07/26 05:20:50;;;;;;;19.42;14.38;;;;;;;23.50;72.02;99586.16;4953833;28;20554;-79
2021/07/26 05:23:17;;;;;;;24.00;15.07;;;;;;;23.75;70.89;99602.81;4953668;29;20050;-80
2021/07/26 05:25:45;;;;;;;16.88;14.48;;;;;;;23.37;72.76;99607.19;4954081;28;20119;-80
2021/07/26 05:28:13;;;;;;;18.60;13.80;;;;;;;23.42;72.25;99612.81;4957566;28;20439;-77
2021/07/26 05:30:40;;;;;;;18.05;13.20;;;;;;;23.39;72.56;99612.34;4957550;29;20494;-77
2021/07/26 05:33:07;;;;;;;19.48;13.20;;;;;;;23.51;72.35;99609.09;4958404;28;20518;-76
2021/07/26 05:35:34;;;;;;;23.42;14.13;;;;;;;23.59;71.57;99616.19;4976353;28;20051;-74
2021/07/26 05:38:03;;;;;;;22.40;14.23;;;;;;;23.64;71.93;99624.50;4976664;28;20034;-74
2021/07/26 05:40:30;;;;;;;18.25;14.07;;;;;;;23.63;72.28;99632.66;4955931;29;20091;-77
2021/07/26 05:42:57;;;;;;;18.67;13.60;;;;;;;23.81;71.36;99630.56;4957460;29;20043;-77
2021/07/26 05:45:25;;;;;;;22.75;14.75;;;;;;;23.78;71.16;99633.56;4957026;28;20043;-76
2021/07/26 05:47:51;;;;;;;20.10;14.88;;;;;;;23.73;71.46;99636.75;4957453;28;20582;-78
2021/07/26 05:50:19;;;;;;;22.85;16.58;;;;;;;23.77;71.13;99642.56;4956809;29;20098;-81
2021/07/26 05:52:47;;;;;;;18.67;14.77;;;;;;;23.66;70.86;99651.78;4956179;29;20051;-80
2021/07/26 05:55:14;;;;;;;21.42;15.85;;;;;;;23.86;70.05;99662.78;4956743;29;20054;-80
2021/07/26 05:57:49;;;;;;;20.17;14.70;;;;;;;23.92;69.94;99656.78;4959143;28;20050;-78
2021/07/26 06:00:23;;;;;;;18.67;14.77;;;;;;;23.84;70.59;99664.81;4976041;28;20046;-77
2021/07/26 06:02:51;;;;;;;20.98;14.95;;;;;;;23.79;70.83;99657.34;4976496;28;20078;-76
2021/07/26 06:05:18;;;;;;;21.02;16.02;;;;;;;23.65;71.62;99668.75;4965388;28;20041;-78
2021/07/26 06:07:44;;;;;;;30.23;16.65;;;;;;;23.81;71.39;99675.81;4968926;28;20498;-77
2021/07/26 06:10:11;;;;;;;23.58;15.60;;;;;;;23.85;70.87;99682.41;4956999;28;20074;-79
2021/07/26 06:12:38;;;;;;;21.88;16.02;;;;;;;23.82;71.05;99689.94;4965643;28;20447;-75
2021/07/26 06:15:05;;;;;;;18.77;15.90;;;;;;;23.90;70.50;99690.72;4967161;28;20547;-78
2021/07/26 06:17:34;;;;;;;17.30;14.77;;;;;;;23.69;71.18;99695.81;4970544;28;20074;-76
2021/07/26 06:20:06;;;;;;;19.85;14.70;;;;;;;23.95;70.08;99693.66;4954362;28;20066;-75
2021/07/26 06:22:32;;;;;;;20.85;14.35;;;;;;;23.97;69.92;99707.66;4967844;28;20131;-79
2021/07/26 06:24:59;;;;;;;17.60;13.75;;;;;;;23.95;68.81;99722.94;4952014;28;20046;-80
2021/07/26 06:27:26;;;;;;;20.48;13.52;;;;;;;23.81;69.06;99723.72;4962424;28;20035;-82
2021/07/26 06:29:53;;;;;;;18.65;13.15;;;;;;;23.91;68.88;99734.13;4967030;28;20042;-82
2021/07/26 06:32:20;;;;;;;18.65;14.90;;;;;;;24.13;68.46;99744.00;4954652;28;20151;-82
2021/07/26 06:34:47;;;;;;;19.92;14.95;;;;;;;23.97;69.31;99744.94;4954379;28;20046;-82
2021/07/26 06:37:14;;;;;;;18.63;14.82;;;;;;;24.16;68.30;99746.28;4953664;28;20146;-82
2021/07/26 06:39:41;;;;;;;20.30;14.30;;;;;;;23.77;68.78;99743.69;4953684;28;20046;-80
2021/07/26 06:42:08;;;;;;;14.55;12.35;;;;;;;23.93;68.10;99750.78;4954168;28;20031;-80
2021/07/26 06:44:37;;;;;;;19.58;13.10;;;;;;;23.74;69.26;99747.53;4954538;28;20057;-81
2021/07/26 06:47:04;;;;;;;22.02;14.13;;;;;;;23.59;69.75;99751.03;4956287;28;20085;-82
2021/07/26 06:49:31;;;;;;;15.85;12.55;;;;;;;23.90;69.17;99757.25;4955812;28;20058;-82
2021/07/26 06:51:58;;;;;;;18.45;13.73;;;;;;;23.84;68.54;99759.78;4955777;28;20502;-82
2021/07/26 06:54:25;;;;;;;18.92;14.38;;;;;;;23.84;68.01;99762.44;4968293;28;20391;-83
2021/07/26 06:56:52;;;;;;;18.42;13.80;;;;;;;24.04;68.11;99761.03;4955523;28;20051;-82
2021/07/26 06:59:18;;;;;;;18.98;13.32;;;;;;;24.07;67.72;99758.00;4956333;28;20035;-80
2021/07/26 07:01:46;;;;;;;15.38;13.13;;;;;;;24.09;67.41;99757.84;4955627;28;20043;-78
2021/07/26 07:04:13;;;;;;;20.77;14.20;;;;;;;24.02;67.39;99761.19;4967743;28;20102;-79
2021/07/26 07:06:41;;;;;;;16.05;13.77;;;;;;;23.87;67.77;99770.09;4945895;28;20411;-81
2021/07/26 07:09:08;;;;;;;17.33;13.52;;;;;;;23.95;67.54;99783.34;4955780;28;20035;-81
2021/07/26 07:11:34;;;;;;;15.35;12.25;;;;;;;24.00;66.70;99783.66;4958898;28;20043;-78
2021/07/26 07:14:01;;;;;;;18.33;13.15;;;;;;;24.12;66.38;99784.09;4969075;28;20035;-82
2021/07/26 07:16:28;;;;;;;19.63;11.52;;;;;;;24.22;66.14;99790.84;4965200;28;20402;-81
2021/07/26 07:18:56;;;;;;;18.55;13.05;;;;;;;23.98;66.52;99797.16;4955056;28;20049;-79
2021/07/26 07:21:30;;;;;;;24.35;13.15;;;;;;;23.84;66.71;99797.06;4956853;28;20131;-80
2021/07/26 07:24:02;;;;;;;23.55;12.85;;;;;;;23.86;67.16;99798.53;4970095;28;20043;-79
2021/07/26 07:26:31;;;;;;;18.55;11.40;;;;;;;24.17;66.29;99813.69;4969376;28;20097;-81
2021/07/26 07:28:58;;;;;;;20.92;13.13;;;;;;;24.30;66.01;99816.63;4968331;28;20130;-80
2021/07/26 07:31:28;;;;;;;15.07;13.43;;;;;;;24.38;65.77;99810.44;4969548;28;20089;-80
2021/07/26 07:33:58;;;;;;;20.33;13.48;;;;;;;24.29;66.19;99810.47;4967470;28;20051;-82
2021/07/26 07:36:27;;;;;;;21.42;13.43;;;;;;;24.59;65.59;99817.78;4969928;28;20049;-81
2021/07/26 07:38:56;;;;;;;21.40;13.73;;;;;;;24.28;67.16;99807.97;4963586;28;20614;-80
2021/07/26 07:41:24;;;;;;;18.77;13.65;;;;;;;24.60;66.68;99816.78;4963797;28;20043;-80
2021/07/26 07:43:51;;;;;;;28.42;13.50;;;;;;;24.62;66.73;99812.13;4960672;28;20113;-83
2021/07/26 07:46:19;;;;;;;18.00;13.60;;;;;;;24.85;66.54;99806.78;4949013;28;20057;-80
2021/07/26 07:48:49;;;;;;;23.55;15.35;;;;;;;24.98;66.48;99810.50;4961514;28;20050;-80
2021/07/26 07:51:18;;;;;;;17.13;13.63;;;;;;;25.25;66.03;99808.28;4968804;28;20049;-80
2021/07/26 07:53:46;;;;;;;19.45;15.00;;;;;;;25.43;64.92;99803.41;4968096;28;20038;-81
2021/07/26 07:56:13;;;;;;;20.90;13.32;;;;;;;25.59;63.88;99800.56;4954704;28;20062;-82
2021/07/26 07:58:41;;;;;;;17.77;13.60;;;;;;;25.82;62.96;99808.47;4966142;28;20045;-82
2021/07/26 08:01:08;;;;;;;19.58;14.90;;;;;;;25.59;64.09;99805.88;4968805;28;20065;-82
2021/07/26 08:03:35;;;;;;;20.20;15.25;;;;;;;25.42;64.25;99809.75;4967584;28;21027;-82
2021/07/26 08:06:02;;;;;;;24.23;15.32;;;;;;;25.49;64.29;99813.34;4965609;28;20113;-80
2021/07/26 08:08:30;;;;;;;19.15;15.02;;;;;;;25.74;62.78;99802.41;4968419;28;20089;-81
2021/07/26 08:10:57;;;;;;;18.15;13.15;;;;;;;25.77;61.91;99791.34;4967299;28;20066;-80
2021/07/26 08:13:25;;;;;;;16.88;13.85;;;;;;;25.81;61.81;99782.78;4968970;28;20057;-78
2021/07/26 08:15:54;;;;;;;19.73;15.18;;;;;;;25.54;63.57;99778.09;4964204;28;20141;-80
2021/07/26 08:18:22;;;;;;;17.20;14.50;;;;;;;25.69;63.38;99778.91;4965347;28;20054;-80
2021/07/26 08:20:50;;;;;;;22.02;14.55;;;;;;;25.56;64.35;99784.06;4966668;28;20035;-78
2021/07/26 08:23:17;;;;;;;19.38;15.10;;;;;;;25.86;63.47;99790.25;4969505;28;20054;-78
2021/07/26 08:25:44;;;;;;;20.55;16.63;;;;;;;25.77;64.40;99794.03;4950860;28;20049;-80
2021/07/26 08:28:10;;;;;;;21.73;15.70;;;;;;;25.87;64.72;99799.91;4967376;28;20041;-80
2021/07/26 08:30:39;;;;;;;21.05;15.13;;;;;;;25.85;64.02;99793.94;4967449;28;20043;-80
2021/07/26 08:33:06;;;;;;;16.65;14.27;;;;;;;25.88;63.32;99782.88;4963603;28;20094;-81
2021/07/26 08:35:35;;;;;;;19.35;16.35;;;;;;;25.97;64.28;99783.59;4967544;28;20124;-79
2021/07/26 08:38:06;;;;;;;25.83;16.42;;;;;;;25.71;65.14;99782.22;4970155;28;20039;-79
2021/07/26 08:40:34;;;;;;;24.02;15.73;;;;;;;25.90;64.65;99782.69;4967574;28;20062;-80
2021/07/26 08:43:11;;;;;;;17.80;16.10;;;;;;;26.02;64.44;99784.69;4964236;28;20058;-79
2021/07/26 08:45:38;;;;;;;21.52;15.25;;;;;;;25.89;65.44;99784.56;4965708;28;20134;-81
2021/07/26 08:48:10;;;;;;;24.70;16.58;;;;;;;26.19;65.07;99779.13;4970134;28;20063;-82
2021/07/26 08:50:38;;;;;;;27.58;16.83;;;;;;;26.42;63.79;99771.81;4970406;28;20126;-79
2021/07/26 08:53:07;;;;;;;24.50;16.42;;;;;;;26.31;64.64;99774.91;4968181;28;20067;-83
2021/07/26 08:55:35;;;;;;;23.20;17.08;;;;;;;26.50;64.27;99777.00;4970426;28;20065;-83
2021/07/26 08:58:05;;;;;;;22.27;16.80;;;;;;;26.57;63.90;99783.22;4967808;28;20066;-80
2021/07/26 09:00:33;;;;;;;17.23;15.40;;;;;;;26.31;63.59;99774.91;4967487;28;20047;-82
2021/07/26 09:03:03;;;;;;;22.92;15.73;;;;;;;26.62;62.53;99775.47;4973444;28;20129;-81
2021/07/26 09:05:30;;;;;;;21.15;17.85;;;;;;;26.39;63.18;99774.81;4957398;28;20066;-78
2021/07/26 09:07:59;;;;;;;20.45;17.92;;;;;;;26.73;62.53;99768.78;4973477;28;20188;-78
2021/07/26 09:10:27;;;;;;;34.10;19.42;;;;;;;26.43;63.94;99772.63;4971999;28;20122;-78
2021/07/26 09:12:55;;;;;;;22.85;16.10;;;;;;;26.84;61.71;99772.78;4969396;28;20310;-78
2021/07/26 09:15:23;;;;;;;23.98;17.10;;;;;;;26.68;62.70;99765.03;4968588;28;20553;-79
2021/07/26 09:17:51;;;;;;;20.77;16.45;;;;;;;26.62;63.10;99763.94;4972060;28;20510;-78
2021/07/26 09:20:20;;;;;;;25.05;16.13;;;;;;;26.85;62.06;99766.44;4972864;28;20043;-78
2021/07/26 09:22:47;;;;;;;23.90;16.88;;;;;;;26.35;64.01;99758.31;4969619;28;20537;-79
2021/07/26 09:25:19;;;;;;;21.65;16.77;;;;;;;26.25;64.01;99762.31;4969944;28;20043;-81
2021/07/26 09:28:08;;;;;;;24.95;16.58;;;;;;;26.55;62.78;99753.22;4970948;28;20078;-77
2021/07/26 09:30:48;;;;;;;22.67;17.58;;;;;;;26.88;61.59;99756.16;4970132;28;20394;-78
2021/07/26 09:33:29;;;;;;;;;;;;;;;26.47;62.90;99750.66;4970784;28;20046;-78
2021/07/26 09:36:07;;;;;;;21.92;17.77;;;;;;;26.48;63.53;99754.19;4969374;28;19993;-80
2021/07/26 09:38:55;;;;;;;29.75;19.27;;;;;;;26.44;63.85;99753.72;4971116;28;20090;-80
2021/07/26 09:41:42;;;;;;;26.33;17.90;;;;;;;26.66;63.23;99759.06;4970688;28;20043;-80
2021/07/26 09:44:09;;;;;;;24.48;18.45;;;;;;;26.64;63.22;99760.09;4967584;28;20047;-82
2021/07/26 09:46:39;;;;;;;25.00;18.63;;;;;;;26.73;62.89;99767.94;4971664;28;20552;-81
2021/07/26 09:49:20;;;;;;;23.80;18.23;;;;;;;27.00;62.50;99760.97;4966051;28;20053;-82
2021/07/26 09:52:09;;;;;;;24.23;18.20;;;;;;;26.76;63.49;99771.06;4971080;28;20062;-83
2021/07/26 09:54:43;;;;;;;26.00;19.58;;;;;;;26.73;63.62;99770.63;4970965;28;20493;-79
2021/07/26 09:57:24;;;;;;;23.17;18.67;;;;;;;26.92;63.38;99764.63;4970380;28;20086;-81
2021/07/26 09:59:55;;;;;;;26.20;18.75;;;;;;;26.88;63.53;99769.53;4969991;28;20058;-79
2021/07/26 10:02:23;;;;;;;27.00;19.77;;;;;;;26.87;63.32;99762.53;4970367;28;20046;-81
2021/07/26 10:04:52;;;;;;;21.75;18.20;;;;;;;27.31;61.71;99756.06;4971287;28;20054;-82
2021/07/26 10:07:19;;;;;;;30.75;18.58;;;;;;;27.17;62.16;99762.38;4967546;28;20042;-83
2021/07/26 10:09:47;;;;;;;29.52;18.85;;;;;;;27.22;61.61;99767.09;4967562;28;20036;-79
2021/07/26 10:12:18;;;;;;;27.23;19.17;;;;;;;27.26;61.85;99760.34;4960567;28;20097;-80
2021/07/26 10:14:48;;;;;;;24.52;17.38;;;;;;;27.17;61.16;99758.88;4961371;28;20042;-83
2021/07/26 10:17:15;;;;;;;22.35;17.00;;;;;;;27.29;60.74;99766.13;4971161;28;20094;-81
2021/07/26 10:19:42;;;;;;;18.45;15.75;;;;;;;27.54;59.62;99757.59;4973727;28;20130;-82
2021/07/26 10:22:13;;;;;;;24.83;16.13;;;;;;;27.74;59.64;99763.09;4971051;28;20651;-82
2021/07/26 10:24:51;;;;;;;21.45;16.83;;;;;;;27.84;58.69;99767.03;4969089;28;20166;-83
2021/07/26 10:27:24;;;;;;;26.98;18.42;;;;;;;27.69;58.59;99772.50;4969249;28;20035;-82
2021/07/26 10:29:55;;;;;;;27.43;17.10;;;;;;;27.98;58.79;99777.81;4970381;28;20050;-83
2021/07/26 10:32:33;;;;;;;21.20;16.15;;;;;;;28.04;58.02;99769.81;4972854;28;20045;-83
2021/07/26 10:35:02;;;;;;;19.63;16.58;;;;;;;28.08;57.90;99763.03;4969950;28;20081;-88
2021/07/26 10:37:41;;;;;;;21.60;15.18;;;;;;;28.03;57.25;99762.81;4971948;28;20050;-83
2021/07/26 10:40:17;;;;;;;18.02;16.08;;;;;;;28.03;58.04;99772.69;4971975;28;20106;-84
2021/07/26 10:42:44;;;;;;;18.50;16.60;;;;;;;27.84;57.28;99760.88;4962606;28;20498;-89
2021/07/26 10:45:31;;;;;;;22.02;18.00;;;;;;;27.75;57.11;99760.25;4967856;28;20044;-87
2021/07/26 10:48:24;;;;;;;20.98;15.75;;;;;;;27.84;57.03;99758.19;4967717;28;20383;-88
2021/07/26 10:50:53;;;;;;;25.35;15.57;;;;;;;27.77;57.29;99746.63;4952925;28;20465;-86
2021/07/26 10:53:34;;;;;;;19.17;14.55;;;;;;;27.92;55.98;99744.63;4966692;28;20093;-88
2021/07/26 10:56:05;;;;;;;16.73;12.48;;;;;;;28.05;54.01;99739.31;4968433;28;20036;-87
2021/07/26 10:58:40;;;;;;;16.92;12.43;;;;;;;28.36;52.58;99727.22;4968605;28;20054;-85
2021/07/26 11:01:22;;;;;;;22.30;15.90;;;;;;;28.18;54.63;99728.63;4966457;28;20051;-87
2021/07/26 11:03:54;;;;;;;20.98;14.18;;;;;;;28.47;53.35;99729.31;4957373;28;20043;-85
2021/07/26 11:06:37;;;;;;;22.38;13.68;;;;;;;28.41;53.92;99739.00;4956106;28;20102;-86
2021/07/26 11:09:19;;;;;;;18.98;13.70;;;;;;;27.92;53.46;99736.59;4963478;28;20075;-86
2021/07/26 11:11:53;;;;;;;18.10;14.65;;;;;;;28.09;54.73;99729.00;4955317;28;20487;-88
2021/07/26 11:14:21;;;;;;;24.92;15.48;;;;;;;28.35;53.96;99729.09;4961733;28;20058;-88
2021/07/26 11:16:59;;;;;;;22.38;14.95;;;;;;;28.42;54.09;99721.88;4955138;28;20526;-87
2021/07/26 11:19:44;;;;;;;37.08;17.75;;;;;;;28.09;54.94;99729.84;4960210;28;20121;-89
2021/07/26 11:22:17;;;;;;;;;;;;;;;28.08;53.73;99732.72;4963093;28;20486;-85
2021/07/26 11:24:46;;;;;;;26.25;13.02;;;;;;;28.32;52.33;99724.09;4966950;28;19922;-82
2021/07/26 11:27:37;;;;;;;20.52;13.00;;;;;;;28.67;52.30;99714.03;4970323;28;20039;-82
2021/07/26 11:30:08;;;;;;;18.63;14.07;;;;;;;28.79;52.09;99716.91;4964056;28;20513;-83